Silver Sun — 3FAU2 — position and weather

sailwx.info

Track history (hours):
 
Tides and Currents Weather Stations Pressure Air Temp Water Temp Dewpoint Dewpoint Depression Visibility Wind Speed Wind Dir Waves Ship Positions

Silver Sun

Last reported at 2018-Feb-22 15:59 UTC. Time now 2018-Feb-22 16:19 UTC.
Position N 51°16' E 004°22'.

Length 183 m; draft 7.3 m.

Type: Cargo ship. MMSI: 373207000.

Date/timePositionNaut miles runAvg speedWind from/ knotsBaromVisibWave heightAir tempDewpointWater temp
2018-Feb-22 15:59N 51°16' E 004°22'0 0.0
2018-Feb-22 15:29N 51°16' E 004°22'0 0.0
2018-Feb-22 14:59N 51°16' E 004°22'0 0.0
2018-Feb-22 14:29N 51°16' E 004°22'0 0.0
2018-Feb-22 13:59N 51°16' E 004°22'0 0.0
2018-Feb-22 13:29N 51°16' E 004°22'0 0.0
2018-Feb-22 12:59N 51°16' E 004°22'0 0.0
2018-Feb-22 12:29N 51°16' E 004°22'0 0.0
2018-Feb-22 11:59N 51°16' E 004°22'0 0.0
2018-Feb-22 11:29N 51°16' E 004°22'0 0.0
2018-Feb-22 10:59N 51°16' E 004°22'0 0.0
2018-Feb-22 10:29N 51°16' E 004°22'0 0.0
2018-Feb-22 09:59N 51°16' E 004°22'0 0.0
2018-Feb-22 09:29N 51°16' E 004°22'0 0.0
2018-Feb-22 08:59N 51°16' E 004°22'0 0.0
2018-Feb-22 08:29N 51°16' E 004°22'0 0.0
2018-Feb-22 07:59N 51°16' E 004°22'0 0.0
2018-Feb-22 07:29N 51°16' E 004°22'0 0.0
2018-Feb-22 06:59N 51°16' E 004°22'0 0.0
2018-Feb-22 06:29N 51°16' E 004°22'0 0.0
2018-Feb-22 05:59N 51°16' E 004°22'0 0.0
2018-Feb-22 05:29N 51°16' E 004°22'0 0.0
2018-Feb-22 04:56N 51°16' E 004°22'0 0.0
2018-Feb-22 04:29N 51°16' E 004°22'0 0.0
2018-Feb-22 03:59N 51°16' E 004°22'0 0.0
2018-Feb-22 03:29N 51°16' E 004°22'0 0.0
2018-Feb-22 02:59N 51°16' E 004°22'0 0.0
2018-Feb-22 02:29N 51°16' E 004°22'0 0.0
2018-Feb-22 01:59N 51°16' E 004°22'0 0.0
2018-Feb-22 01:29N 51°16' E 004°22'0 0.0
2018-Feb-22 00:59N 51°16' E 004°22'0 0.0
2018-Feb-22 00:29N 51°16' E 004°22'0 0.0
2018-Feb-21 23:59N 51°16' E 004°22'0 0.0
2018-Feb-21 23:29N 51°16' E 004°22'0 0.0
2018-Feb-21 22:59N 51°16' E 004°22'0 0.0
2018-Feb-21 22:29N 51°16' E 004°22'0 0.0
2018-Feb-21 21:59N 51°16' E 004°22'0 0.0
2018-Feb-21 21:29N 51°16' E 004°22'0 0.0
2018-Feb-21 20:59N 51°16' E 004°22'0 0.0
2018-Feb-21 20:29N 51°16' E 004°22'0 0.0
2018-Feb-21 19:59N 51°16' E 004°22'0 0.0
2018-Feb-21 19:29N 51°16' E 004°22'0 0.0
2018-Feb-21 18:59N 51°16' E 004°22'0 0.0
2018-Feb-21 18:29N 51°16' E 004°22'0 0.0
2018-Feb-21 17:59N 51°16' E 004°22'0 0.0
2018-Feb-21 17:29N 51°16' E 004°22'0 0.0
2018-Feb-21 16:59N 51°16' E 004°22'0 0.0
2018-Feb-21 16:29N 51°16' E 004°22'0 0.0
2018-Feb-21 15:59N 51°16' E 004°22'0 0.0
2018-Feb-21 15:29N 51°16' E 004°22'0 0.0
2018-Feb-21 14:59N 51°16' E 004°22'0 0.3
2018-Feb-21 14:30N 51°16' E 004°22'1 2.2
2018-Feb-21 14:00N 51°17' E 004°20'0 0.0
2018-Feb-21 13:30N 51°17' E 004°20'0 0.2
2018-Feb-21 13:01N 51°17' E 004°20'3 5.4
2018-Feb-21 12:31N 51°18' E 004°16'5 9.0
2018-Feb-21 12:01N 51°22' E 004°13'4 8.4
2018-Feb-21 11:31N 51°22' E 004°06'5 9.7
2018-Feb-21 11:01N 51°26' E 004°01'5 9.6
2018-Feb-21 10:31N 51°22' E 003°56'510.1
2018-Feb-21 10:01N 51°21' E 003°48'510.1
2018-Feb-21 09:30N 51°25' E 003°42'4 8.8
2018-Feb-21 09:01N 51°26' E 003°36'4 8.6
2018-Feb-21 08:30N 51°25' E 003°29'510.8
2018-Feb-21 08:00N 51°24' E 003°20'611.9
2018-Feb-21 07:31N 51°24' E 003°11'612.7
2018-Feb-21 07:01N 51°24' E 003°01'713.5
2018-Feb-21 06:30N 51°22' E 002°50'612.3
2018-Feb-21 06:00N 51°22' E 002°40'713.2
2018-Feb-21 05:30N 51°22' E 002°29'714.6
2018-Feb-21 05:00N 51°19' E 002°19'714.8
2018-Feb-21 04:30N 51°15' E 002°09'815.3
2018-Feb-21 04:00N 51°11' E 001°58'815.5
2018-Feb-21 03:30N 51°08' E 001°47'816.0
2018-Feb-21 03:00N 51°02' E 001°38'2414.5
2018-Feb-21 01:22N 50°41' E 001°20'1114.1
2018-Feb-21 00:36N 50°34' E 001°07'214.4
2018-Feb-21 00:30N 50°33' E 001°05'714.2
2018-Feb-21 00:00N 50°29' E 000°56'714.3
2018-Feb-20 23:30N 50°27' E 000°45'814.5
2018-Feb-20 22:57N 50°26' E 000°33'614.3
2018-Feb-20 22:30N 50°24' E 000°23'714.0
2018-Feb-20 22:00N 50°22' E 000°13'713.6
2018-Feb-20 21:30N 50°21' E 000°02'712.9
2018-Feb-20 20:58N 50°19' W 000°08'612.6
2018-Feb-20 20:30N 50°18' W 000°17'912.4
2018-Feb-20 19:46N 50°15' W 000°31'312.1
2018-Feb-20 19:29N 50°14' W 000°36'612.0
2018-Feb-20 19:01N 50°12' W 000°45'611.9
2018-Feb-20 18:30N 50°11' W 000°54'611.4
2018-Feb-20 18:01N 50°10' W 001°02'611.0
2018-Feb-20 17:31N 50°09' W 001°11'510.5
2018-Feb-20 17:00N 50°07' W 001°18'510.0
2018-Feb-20 16:31N 50°06' W 001°26'5 9.6
2018-Feb-20 16:00N 50°05' W 001°33'510.1
2018-Feb-20 15:30N 50°03' W 001°41'510.1
2018-Feb-20 15:01N 50°01' W 001°48'610.9
2018-Feb-20 14:30N 49°60' W 001°56'612.0
2018-Feb-20 14:00N 49°58' W 002°05'712.8
2018-Feb-20 13:29N 49°57' W 002°15'813.4
2018-Feb-20 12:55N 49°55' W 002°27'613.8
2018-Feb-20 12:29N 49°53' W 002°35'713.6
2018-Feb-20 12:00N 49°51' W 002°45'713.7
2018-Feb-20 11:30N 49°49' W 002°55'813.7
2018-Feb-20 10:57N 49°45' W 003°06'3713.8
2018-Feb-20 08:17N 49°27' W 003°55'414.2
2018-Feb-20 08:00N 49°25' W 004°01'2914.3
2018-Feb-20 05:59N 49°11' W 004°39'714.6
2018-Feb-20 05:29N 49°07' W 004°49'814.4
2018-Feb-20 04:56N 49°03' W 004°59'614.4
2018-Feb-20 04:30N 48°60' W 005°07'714.0
2018-Feb-20 04:00N 48°56' W 005°16'713.6
2018-Feb-20 03:30N 48°52' W 005°24'713.4
2018-Feb-20 03:00N 48°48' W 005°33'812.8
2018-Feb-20 02:24N 48°42' W 005°41'512.8
2018-Feb-20 02:00N 48°38' W 005°45'612.7
2018-Feb-20 01:30N 48°33' W 005°50'612.5
2018-Feb-20 01:00N 48°28' W 005°56'1412.0
2018-Feb-19 23:51N 48°16' W 006°07'511.6
2018-Feb-19 23:24N 48°12' W 006°11'811.8
2018-Feb-19 22:45N 48°05' W 006°17'512.0
2018-Feb-19 22:22N 48°01' W 006°21'912.0
2018-Feb-19 21:36N 47°54' W 006°28'112.2
2018-Feb-19 21:29N 47°52' W 006°30'612.4
2018-Feb-19 20:58N 47°47' W 006°34'3213.2
2018-Feb-19 18:31N 47°20' W 007°01'015.6
2018-Feb-19 18:30N 47°20' W 007°01'713.5
2018-Feb-19 17:59N 47°14' W 007°07'  
2018-Feb-16 13:09N 31°43' W 014°37'213.4
2018-Feb-16 12:59N 31°41' W 014°37'713.6
2018-Feb-16 12:28N 31°34' W 014°40'613.6
2018-Feb-16 12:00N 31°28' W 014°42'713.5
2018-Feb-16 11:30N 31°22' W 014°44'713.5
2018-Feb-16 10:58N 31°15' W 014°46'1113.7
2018-Feb-16 10:12N 31°05' W 014°50'313.6
2018-Feb-16 10:00N 31°02' W 014°50'913.6
2018-Feb-16 09:21N 30°53' W 014°53'1513.7
2018-Feb-16 08:16N 30°39' W 014°58'413.6
2018-Feb-16 08:00N 30°36' W 014°59'713.7
2018-Feb-16 07:30N 30°29' W 015°01'713.7
2018-Feb-16 07:00N 30°22' W 015°03'1313.6
2018-Feb-16 06:04N 30°10' W 015°07'113.8
2018-Feb-16 06:00N 30°09' W 015°08'713.7
2018-Feb-16 05:28N 30°02' W 015°10'1613.8
2018-Feb-16 04:20N 29°47' W 015°15'514.1
2018-Feb-16 04:00N 29°43' W 015°17'1213.7
2018-Feb-16 03:06N 29°31' W 015°21'113.7
2018-Feb-16 03:00N 29°30' W 015°21'713.8
2018-Feb-16 02:30N 29°23' W 015°23'713.7
2018-Feb-16 02:00N 29°16' W 015°25'713.5
2018-Feb-16 01:30N 29°10' W 015°27'713.7
2018-Feb-16 01:01N 29°03' W 015°29'713.7
2018-Feb-16 00:31N 28°57' W 015°32'713.8
2018-Feb-16 00:00N 28°50' W 015°34'713.9
2018-Feb-15 23:30N 28°43' W 015°36'713.6
2018-Feb-15 23:00N 28°37' W 015°39'713.6
2018-Feb-15 22:31N 28°32' W 015°44'713.8
2018-Feb-15 22:00N 28°27' W 015°49'713.6
2018-Feb-15 21:30N 28°21' W 015°54'713.6
2018-Feb-15 21:00N 28°16' W 015°59'2813.3
2018-Feb-15 18:53N 27°53' W 016°17'2613.5
2018-Feb-15 16:56N 27°27' W 016°24'  
Track history (hours):
 
Tides and Currents Weather Stations Pressure Air Temp Water Temp Dewpoint Dewpoint Depression Visibility Wind Speed Wind Dir Waves Ship Positions

Silver Sun

Last reported at 2018-Feb-22 15:59 UTC. Time now 2018-Feb-22 16:19 UTC.
Position N 51°16' E 004°22'.

Length 183 m; draft 7.3 m.

Type: Cargo ship. MMSI: 373207000.

Date/timePositionNaut miles runAvg speedWind from/ knotsBaromVisibWave heightAir tempDewpointWater temp
2018-Feb-22 15:59N 51°16' E 004°22'0 0.0
2018-Feb-22 15:29N 51°16' E 004°22'0 0.0
2018-Feb-22 14:59N 51°16' E 004°22'0 0.0
2018-Feb-22 14:29N 51°16' E 004°22'0 0.0
2018-Feb-22 13:59N 51°16' E 004°22'0 0.0
2018-Feb-22 13:29N 51°16' E 004°22'0 0.0
2018-Feb-22 12:59N 51°16' E 004°22'0 0.0
2018-Feb-22 12:29N 51°16' E 004°22'0 0.0
2018-Feb-22 11:59N 51°16' E 004°22'0 0.0
2018-Feb-22 11:29N 51°16' E 004°22'0 0.0
2018-Feb-22 10:59N 51°16' E 004°22'0 0.0
2018-Feb-22 10:29N 51°16' E 004°22'0 0.0
2018-Feb-22 09:59N 51°16' E 004°22'0 0.0
2018-Feb-22 09:29N 51°16' E 004°22'0 0.0
2018-Feb-22 08:59N 51°16' E 004°22'0 0.0
2018-Feb-22 08:29N 51°16' E 004°22'0 0.0
2018-Feb-22 07:59N 51°16' E 004°22'0 0.0
2018-Feb-22 07:29N 51°16' E 004°22'0 0.0
2018-Feb-22 06:59N 51°16' E 004°22'0 0.0
2018-Feb-22 06:29N 51°16' E 004°22'0 0.0
2018-Feb-22 05:59N 51°16' E 004°22'0 0.0
2018-Feb-22 05:29N 51°16' E 004°22'0 0.0
2018-Feb-22 04:56N 51°16' E 004°22'0 0.0
2018-Feb-22 04:29N 51°16' E 004°22'0 0.0
2018-Feb-22 03:59N 51°16' E 004°22'0 0.0
2018-Feb-22 03:29N 51°16' E 004°22'0 0.0
2018-Feb-22 02:59N 51°16' E 004°22'0 0.0
2018-Feb-22 02:29N 51°16' E 004°22'0 0.0
2018-Feb-22 01:59N 51°16' E 004°22'0 0.0
2018-Feb-22 01:29N 51°16' E 004°22'0 0.0
2018-Feb-22 00:59N 51°16' E 004°22'0 0.0
2018-Feb-22 00:29N 51°16' E 004°22'0 0.0
2018-Feb-21 23:59N 51°16' E 004°22'0 0.0
2018-Feb-21 23:29N 51°16' E 004°22'0 0.0
2018-Feb-21 22:59N 51°16' E 004°22'0 0.0
2018-Feb-21 22:29N 51°16' E 004°22'0 0.0
2018-Feb-21 21:59N 51°16' E 004°22'0 0.0
2018-Feb-21 21:29N 51°16' E 004°22'0 0.0
2018-Feb-21 20:59N 51°16' E 004°22'0 0.0
2018-Feb-21 20:29N 51°16' E 004°22'0 0.0
2018-Feb-21 19:59N 51°16' E 004°22'0 0.0
2018-Feb-21 19:29N 51°16' E 004°22'0 0.0
2018-Feb-21 18:59N 51°16' E 004°22'0 0.0
2018-Feb-21 18:29N 51°16' E 004°22'0 0.0
2018-Feb-21 17:59N 51°16' E 004°22'0 0.0
2018-Feb-21 17:29N 51°16' E 004°22'0 0.0
2018-Feb-21 16:59N 51°16' E 004°22'0 0.0
2018-Feb-21 16:29N 51°16' E 004°22'0 0.0
2018-Feb-21 15:59N 51°16' E 004°22'0 0.0
2018-Feb-21 15:29N 51°16' E 004°22'0 0.0
2018-Feb-21 14:59N 51°16' E 004°22'0 0.3
2018-Feb-21 14:30N 51°16' E 004°22'1 2.2
2018-Feb-21 14:00N 51°17' E 004°20'0 0.0
2018-Feb-21 13:30N 51°17' E 004°20'0 0.2
2018-Feb-21 13:01N 51°17' E 004°20'3 5.4
2018-Feb-21 12:31N 51°18' E 004°16'5 9.0
2018-Feb-21 12:01N 51°22' E 004°13'4 8.4
2018-Feb-21 11:31N 51°22' E 004°06'5 9.7
2018-Feb-21 11:01N 51°26' E 004°01'5 9.6
2018-Feb-21 10:31N 51°22' E 003°56'510.1
2018-Feb-21 10:01N 51°21' E 003°48'510.1
2018-Feb-21 09:30N 51°25' E 003°42'4 8.8
2018-Feb-21 09:01N 51°26' E 003°36'4 8.6
2018-Feb-21 08:30N 51°25' E 003°29'510.8
2018-Feb-21 08:00N 51°24' E 003°20'611.9
2018-Feb-21 07:31N 51°24' E 003°11'612.7
2018-Feb-21 07:01N 51°24' E 003°01'713.5
2018-Feb-21 06:30N 51°22' E 002°50'612.3
2018-Feb-21 06:00N 51°22' E 002°40'713.2
2018-Feb-21 05:30N 51°22' E 002°29'714.6
2018-Feb-21 05:00N 51°19' E 002°19'714.8
2018-Feb-21 04:30N 51°15' E 002°09'815.3
2018-Feb-21 04:00N 51°11' E 001°58'815.5
2018-Feb-21 03:30N 51°08' E 001°47'816.0
2018-Feb-21 03:00N 51°02' E 001°38'2414.5
2018-Feb-21 01:22N 50°41' E 001°20'1114.1
2018-Feb-21 00:36N 50°34' E 001°07'214.4
2018-Feb-21 00:30N 50°33' E 001°05'714.2
2018-Feb-21 00:00N 50°29' E 000°56'714.3
2018-Feb-20 23:30N 50°27' E 000°45'814.5
2018-Feb-20 22:57N 50°26' E 000°33'614.3
2018-Feb-20 22:30N 50°24' E 000°23'714.0
2018-Feb-20 22:00N 50°22' E 000°13'713.6
2018-Feb-20 21:30N 50°21' E 000°02'712.9
2018-Feb-20 20:58N 50°19' W 000°08'612.6
2018-Feb-20 20:30N 50°18' W 000°17'912.4
2018-Feb-20 19:46N 50°15' W 000°31'312.1
2018-Feb-20 19:29N 50°14' W 000°36'612.0
2018-Feb-20 19:01N 50°12' W 000°45'611.9
2018-Feb-20 18:30N 50°11' W 000°54'611.4
2018-Feb-20 18:01N 50°10' W 001°02'611.0
2018-Feb-20 17:31N 50°09' W 001°11'510.5
2018-Feb-20 17:00N 50°07' W 001°18'510.0
2018-Feb-20 16:31N 50°06' W 001°26'5 9.6
2018-Feb-20 16:00N 50°05' W 001°33'510.1
2018-Feb-20 15:30N 50°03' W 001°41'510.1
2018-Feb-20 15:01N 50°01' W 001°48'610.9
2018-Feb-20 14:30N 49°60' W 001°56'612.0
2018-Feb-20 14:00N 49°58' W 002°05'712.8
2018-Feb-20 13:29N 49°57' W 002°15'813.4
2018-Feb-20 12:55N 49°55' W 002°27'613.8
2018-Feb-20 12:29N 49°53' W 002°35'713.6
2018-Feb-20 12:00N 49°51' W 002°45'713.7
2018-Feb-20 11:30N 49°49' W 002°55'813.7
2018-Feb-20 10:57N 49°45' W 003°06'3713.8
2018-Feb-20 08:17N 49°27' W 003°55'414.2
2018-Feb-20 08:00N 49°25' W 004°01'2914.3
2018-Feb-20 05:59N 49°11' W 004°39'714.6
2018-Feb-20 05:29N 49°07' W 004°49'814.4
2018-Feb-20 04:56N 49°03' W 004°59'614.4
2018-Feb-20 04:30N 48°60' W 005°07'714.0
2018-Feb-20 04:00N 48°56' W 005°16'713.6
2018-Feb-20 03:30N 48°52' W 005°24'713.4
2018-Feb-20 03:00N 48°48' W 005°33'812.8
2018-Feb-20 02:24N 48°42' W 005°41'512.8
2018-Feb-20 02:00N 48°38' W 005°45'612.7
2018-Feb-20 01:30N 48°33' W 005°50'612.5
2018-Feb-20 01:00N 48°28' W 005°56'1412.0
2018-Feb-19 23:51N 48°16' W 006°07'511.6
2018-Feb-19 23:24N 48°12' W 006°11'811.8
2018-Feb-19 22:45N 48°05' W 006°17'512.0
2018-Feb-19 22:22N 48°01' W 006°21'912.0
2018-Feb-19 21:36N 47°54' W 006°28'112.2
2018-Feb-19 21:29N 47°52' W 006°30'612.4
2018-Feb-19 20:58N 47°47' W 006°34'3213.2
2018-Feb-19 18:31N 47°20' W 007°01'015.6
2018-Feb-19 18:30N 47°20' W 007°01'713.5
2018-Feb-19 17:59N 47°14' W 007°07'  
2018-Feb-16 13:09N 31°43' W 014°37'213.4
2018-Feb-16 12:59N 31°41' W 014°37'713.6
2018-Feb-16 12:28N 31°34' W 014°40'613.6
2018-Feb-16 12:00N 31°28' W 014°42'713.5
2018-Feb-16 11:30N 31°22' W 014°44'713.5
2018-Feb-16 10:58N 31°15' W 014°46'1113.7
2018-Feb-16 10:12N 31°05' W 014°50'313.6
2018-Feb-16 10:00N 31°02' W 014°50'913.6
2018-Feb-16 09:21N 30°53' W 014°53'1513.7
2018-Feb-16 08:16N 30°39' W 014°58'413.6
2018-Feb-16 08:00N 30°36' W 014°59'713.7
2018-Feb-16 07:30N 30°29' W 015°01'713.7
2018-Feb-16 07:00N 30°22' W 015°03'1313.6
2018-Feb-16 06:04N 30°10' W 015°07'113.8
2018-Feb-16 06:00N 30°09' W 015°08'713.7
2018-Feb-16 05:28N 30°02' W 015°10'1613.8
2018-Feb-16 04:20N 29°47' W 015°15'514.1
2018-Feb-16 04:00N 29°43' W 015°17'1213.7
2018-Feb-16 03:06N 29°31' W 015°21'113.7
2018-Feb-16 03:00N 29°30' W 015°21'713.8
2018-Feb-16 02:30N 29°23' W 015°23'713.7
2018-Feb-16 02:00N 29°16' W 015°25'713.5
2018-Feb-16 01:30N 29°10' W 015°27'713.7
2018-Feb-16 01:01N 29°03' W 015°29'713.7
2018-Feb-16 00:31N 28°57' W 015°32'713.8
2018-Feb-16 00:00N 28°50' W 015°34'713.9
2018-Feb-15 23:30N 28°43' W 015°36'713.6
2018-Feb-15 23:00N 28°37' W 015°39'713.6
2018-Feb-15 22:31N 28°32' W 015°44'713.8
2018-Feb-15 22:00N 28°27' W 015°49'713.6
2018-Feb-15 21:30N 28°21' W 015°54'713.6
2018-Feb-15 21:00N 28°16' W 015°59'2813.3
2018-Feb-15 18:53N 27°53' W 016°17'2613.5
2018-Feb-15 16:56N 27°27' W 016°24'  

Dump ship's entire track history